Time;durP1;ratioP1;P1;durP2;ratioP2;P2;SDS_P1;SDS_P2;PMS_P1;PMS_P2;Temp;Humidity;BMP_temperature;BMP_pressure;BME280_temperature;BME280_humidity;BME280_pressure;Samples;Min_cycle;Max_cycle;Signal;HPM_P1;HPM_P2
2023/08/03 00:00:05;;;;;;;4.70;2.00;;;;;;;15.48;100.00;98830.31;5070523;28;20059;-74
2023/08/03 00:02:34;;;;;;;2.22;1.50;;;;;;;15.49;100.00;98829.28;5080007;28;20035;-75
2023/08/03 00:05:00;;;;;;;6.97;2.40;;;;;;;15.51;100.00;98829.09;5079596;28;20043;-75
2023/08/03 00:07:26;;;;;;;6.18;2.40;;;;;;;15.54;100.00;98834.13;5080761;28;20043;-75
2023/08/03 00:09:52;;;;;;;6.07;1.90;;;;;;;15.54;100.00;98834.13;5080407;28;20036;-75
2023/08/03 00:12:18;;;;;;;7.97;2.40;;;;;;;15.54;100.00;98832.25;5082981;28;20025;-75
2023/08/03 00:14:43;;;;;;;10.00;2.85;;;;;;;15.55;100.00;98831.22;5083443;28;20035;-74
2023/08/03 00:17:09;;;;;;;10.23;3.17;;;;;;;15.59;100.00;98841.66;5081191;28;20084;-75
2023/08/03 00:19:34;;;;;;;13.55;3.60;;;;;;;15.59;100.00;98838.94;5081202;28;20012;-74
2023/08/03 00:21:59;;;;;;;8.82;3.38;;;;;;;15.60;100.00;98841.44;5072483;28;20025;-75
2023/08/03 00:24:25;;;;;;;13.80;3.97;;;;;;;15.63;100.00;98843.78;5081211;28;20040;-74
2023/08/03 00:26:50;;;;;;;10.68;3.53;;;;;;;15.62;100.00;98852.91;5083210;28;20048;-74
2023/08/03 00:29:15;;;;;;;15.48;4.72;;;;;;;15.64;100.00;98861.69;5081765;28;20060;-75
2023/08/03 00:31:40;;;;;;;14.30;3.88;;;;;;;15.65;100.00;98857.13;5079525;28;20024;-75
2023/08/03 00:34:06;;;;;;;12.15;4.45;;;;;;;15.65;100.00;98857.97;5082207;28;20029;-76
2023/08/03 00:36:31;;;;;;;16.35;5.10;;;;;;;15.67;100.00;98874.84;5082313;28;20045;-74
2023/08/03 00:38:56;;;;;;;16.23;4.80;;;;;;;15.69;100.00;98872.78;5079834;28;20029;-75
2023/08/03 00:41:22;;;;;;;13.80;4.63;;;;;;;15.69;100.00;98882.78;5073286;28;20026;-74
2023/08/03 00:43:47;;;;;;;16.50;5.38;;;;;;;15.68;100.00;98875.69;5083928;28;20040;-75
2023/08/03 00:46:13;;;;;;;17.30;5.57;;;;;;;15.65;100.00;98890.47;5086470;28;20024;-76
2023/08/03 00:48:38;;;;;;;18.35;5.82;;;;;;;15.64;100.00;98891.50;5083227;28;20067;-75
2023/08/03 00:51:03;;;;;;;16.25;5.47;;;;;;;15.62;100.00;98892.72;5073854;28;20024;-75
2023/08/03 00:53:29;;;;;;;15.55;6.03;;;;;;;15.62;100.00;98906.25;5077001;28;20013;-76
2023/08/03 00:55:55;;;;;;;19.40;6.38;;;;;;;15.60;100.00;98917.28;5083332;28;20027;-75
2023/08/03 00:58:20;;;;;;;18.52;6.55;;;;;;;15.60;100.00;98917.28;5082268;28;20077;-76
2023/08/03 01:00:45;;;;;;;19.55;6.78;;;;;;;15.60;100.00;98924.56;5085394;28;20036;-76
2023/08/03 01:03:11;;;;;;;18.77;7.00;;;;;;;15.61;100.00;98918.09;5084336;28;20024;-75
2023/08/03 01:05:36;;;;;;;21.60;6.72;;;;;;;15.60;100.00;98929.97;5072680;28;20033;-75
2023/08/03 01:08:01;;;;;;;19.13;7.03;;;;;;;15.60;100.00;98930.81;5077398;28;20016;-75
2023/08/03 01:10:28;;;;;;;20.48;6.80;;;;;;;15.60;100.00;98922.69;5082400;28;20110;-75
2023/08/03 01:12:55;;;;;;;20.00;7.22;;;;;;;15.63;100.00;98932.31;5083665;28;20091;-75
2023/08/03 01:15:20;;;;;;;18.95;6.88;;;;;;;15.63;100.00;98935.84;5079791;28;20028;-75
2023/08/03 01:17:45;;;;;;;17.77;6.38;;;;;;;15.65;100.00;98936.50;5080437;28;20039;-74
2023/08/03 01:20:11;;;;;;;19.75;7.25;;;;;;;15.65;100.00;98946.47;5077145;28;20064;-75
2023/08/03 01:22:44;;;;;;;21.13;7.25;;;;;;;15.65;100.00;98955.47;5072836;28;20074;-75
2023/08/03 01:25:10;;;;;;;21.17;7.18;;;;;;;15.65;100.00;98955.47;5078006;28;20037;-75
2023/08/03 01:27:35;;;;;;;19.25;6.13;;;;;;;15.66;100.00;98957.13;5076418;28;20079;-74
2023/08/03 01:30:01;;;;;;;18.65;6.00;;;;;;;15.68;100.00;98955.06;5071508;28;20041;-74
2023/08/03 01:32:26;;;;;;;19.35;6.75;;;;;;;15.68;100.00;98968.63;5078210;28;20032;-74
2023/08/03 01:34:51;;;;;;;17.40;6.38;;;;;;;15.70;100.00;98979.25;5078673;28;20173;-74
2023/08/03 01:37:19;;;;;;;16.38;5.85;;;;;;;15.70;100.00;98980.09;5076275;28;20424;-75
2023/08/03 01:39:45;;;;;;;17.63;5.75;;;;;;;15.72;100.00;98978.03;5081011;28;20035;-76
2023/08/03 01:42:12;;;;;;;16.52;6.03;;;;;;;15.73;100.00;98974.28;5072641;28;20040;-75
2023/08/03 01:44:37;;;;;;;19.98;6.25;;;;;;;15.73;100.00;98973.44;5075989;28;20036;-75
2023/08/03 01:47:02;;;;;;;16.17;5.15;;;;;;;15.72;100.00;98980.75;5081207;28;20024;-75
2023/08/03 01:49:29;;;;;;;17.00;4.82;;;;;;;15.71;100.00;98979.06;5085282;28;20354;-75
2023/08/03 01:51:55;;;;;;;12.60;4.78;;;;;;;15.72;100.00;98977.19;5078679;28;20025;-75
2023/08/03 01:54:20;;;;;;;14.60;4.60;;;;;;;15.71;100.00;98976.34;5080227;28;20063;-74
2023/08/03 01:56:45;;;;;;;15.13;4.43;;;;;;;15.71;100.00;98981.75;5074195;28;20448;-74
2023/08/03 01:59:11;;;;;;;11.27;3.80;;;;;;;15.71;100.00;98979.06;5078994;28;20043;-75
2023/08/03 02:01:37;;;;;;;14.52;4.00;;;;;;;15.71;100.00;98987.19;5073471;28;20021;-75
2023/08/03 02:04:03;;;;;;;12.05;3.40;;;;;;;15.71;100.00;98987.19;5078008;28;20119;-75
2023/08/03 02:06:28;;;;;;;10.55;3.10;;;;;;;15.73;100.00;98987.81;5080245;28;20040;-74
2023/08/03 02:08:53;;;;;;;15.02;3.95;;;;;;;15.72;100.00;98991.56;5080441;28;20036;-75
2023/08/03 02:11:19;;;;;;;13.43;4.20;;;;;;;15.72;100.00;98983.47;5084619;28;20020;-75
2023/08/03 02:13:44;;;;;;;15.30;4.47;;;;;;;15.71;100.00;98981.75;5074019;28;20523;-75
2023/08/03 02:16:10;;;;;;;18.63;4.63;;;;;;;15.72;100.00;98983.47;5079688;28;20060;-74
2023/08/03 02:18:39;;;;;;;19.55;5.60;;;;;;;15.69;100.00;98981.09;5081764;28;20040;-75
2023/08/03 02:21:05;;;;;;;15.60;4.80;;;;;;;15.68;100.00;98982.16;5078026;28;20009;-74
2023/08/03 02:23:31;;;;;;;19.77;5.07;;;;;;;15.68;100.00;98974.03;5072316;28;20111;-75
2023/08/03 02:25:56;;;;;;;17.77;5.10;;;;;;;15.68;100.00;98968.63;5079433;28;20033;-74
2023/08/03 02:28:22;;;;;;;22.13;5.32;;;;;;;15.67;100.00;98975.06;5079945;28;20040;-74
2023/08/03 02:30:47;;;;;;;19.20;5.68;;;;;;;15.68;100.00;98982.16;5070428;28;20059;-74
2023/08/03 02:33:12;;;;;;;20.27;5.38;;;;;;;15.67;100.00;98980.47;5079716;28;20036;-75
2023/08/03 02:35:39;;;;;;;21.80;5.72;;;;;;;15.67;100.00;98975.06;5078392;28;20052;-75
2023/08/03 02:38:08;;;;;;;21.73;4.93;;;;;;;15.66;100.00;98984.19;5079217;28;20025;-75
2023/08/03 02:40:33;;;;;;;19.30;5.53;;;;;;;15.68;100.00;98982.16;5078698;28;20120;-75
2023/08/03 02:42:58;;;;;;;17.52;5.68;;;;;;;15.70;100.00;98992.78;5070160;28;20041;-74
2023/08/03 02:45:24;;;;;;;23.20;6.72;;;;;;;15.69;100.00;98972.16;5065408;28;20064;-78
2023/08/03 02:47:49;;;;;;;18.48;6.18;;;;;;;15.68;100.00;98970.47;5061385;28;20024;-78
2023/08/03 02:50:15;;;;;;;21.58;5.20;;;;;;;15.68;100.00;98963.19;5056605;28;20029;-79
2023/08/03 02:52:40;;;;;;;23.10;5.90;;;;;;;15.67;100.00;98980.47;5061237;28;20115;-78
2023/08/03 02:55:06;;;;;;;20.40;5.15;;;;;;;15.65;100.00;98982.53;5050707;28;20020;-78
2023/08/03 02:57:31;;;;;;;20.67;5.78;;;;;;;15.64;100.00;98972.72;5057953;28;20127;-78
2023/08/03 02:59:56;;;;;;;17.17;5.10;;;;;;;15.64;100.00;98988.97;5060523;28;20108;-79
2023/08/03 03:02:22;;;;;;;19.15;5.85;;;;;;;15.65;100.00;98995.22;5062113;28;20028;-79
2023/08/03 03:04:49;;;;;;;19.15;5.22;;;;;;;15.64;100.00;98999.81;5058652;28;20036;-78
2023/08/03 03:07:14;;;;;;;21.05;5.63;;;;;;;15.65;100.00;98992.50;5058766;28;20484;-79
2023/08/03 03:09:40;;;;;;;17.00;4.68;;;;;;;15.64;100.00;99007.09;5060155;28;20025;-78
2023/08/03 03:12:05;;;;;;;25.42;5.47;;;;;;;15.63;100.00;99002.72;5064992;28;20032;-79
2023/08/03 03:14:31;;;;;;;18.52;5.38;;;;;;;15.62;100.00;98999.13;5057561;28;20029;-79
2023/08/03 03:16:56;;;;;;;20.95;5.25;;;;;;;15.60;100.00;98998.50;5051554;28;20123;-79
2023/08/03 03:19:21;;;;;;;16.40;4.82;;;;;;;15.61;100.00;99005.59;5062917;28;20028;-78
2023/08/03 03:21:47;;;;;;;20.98;5.45;;;;;;;15.58;100.00;98997.88;5061904;28;20129;-79
2023/08/03 03:24:12;;;;;;;19.58;5.45;;;;;;;15.55;100.00;99014.50;5057123;28;20124;-78
2023/08/03 03:26:37;;;;;;;17.27;4.43;;;;;;;15.53;100.00;99008.41;5063749;28;20024;-78
2023/08/03 03:29:03;;;;;;;16.73;4.45;;;;;;;15.50;100.00;99015.03;5058489;28;20025;-78
2023/08/03 03:31:28;;;;;;;12.13;4.25;;;;;;;15.50;100.00;99022.34;5062810;28;20472;-78
2023/08/03 03:33:53;;;;;;;16.20;4.93;;;;;;;15.49;100.00;99026.06;5053631;28;20020;-78
2023/08/03 03:36:18;;;;;;;22.85;5.45;;;;;;;15.47;100.00;99030.84;5054094;28;20123;-78
2023/08/03 03:38:44;;;;;;;17.10;4.28;;;;;;;15.45;100.00;99032.91;5063305;28;20024;-78
2023/08/03 03:41:09;;;;;;;17.42;4.63;;;;;;;15.46;100.00;99037.28;5060579;28;20476;-79
2023/08/03 03:43:34;;;;;;;19.50;5.13;;;;;;;15.46;100.00;99038.13;5053442;28;20025;-78
2023/08/03 03:46:01;;;;;;;17.50;4.30;;;;;;;15.45;100.00;99041.03;5059290;28;20020;-78
2023/08/03 03:48:27;;;;;;;14.52;4.57;;;;;;;15.44;100.00;99052.88;5060645;28;20086;-78
2023/08/03 03:50:52;;;;;;;17.67;4.28;;;;;;;15.43;100.00;99054.72;5064784;28;20539;-79
2023/08/03 03:53:18;;;;;;;15.57;4.43;;;;;;;15.42;100.00;99068.44;5063909;28;20008;-78
2023/08/03 03:55:43;;;;;;;12.73;3.70;;;;;;;15.42;100.00;99063.03;5078208;28;20039;-75
2023/08/03 03:58:08;;;;;;;12.73;4.13;;;;;;;15.42;100.00;99077.44;5075487;28;20021;-76
2023/08/03 04:00:39;;;;;;;13.77;4.10;;;;;;;15.41;100.00;99081.16;5076788;28;20033;-75
2023/08/03 04:03:05;;;;;;;14.40;4.20;;;;;;;15.39;100.00;99069.69;5068164;28;20008;-75
2023/08/03 04:05:30;;;;;;;14.57;3.63;;;;;;;15.42;100.00;99076.56;5081082;28;20043;-76
2023/08/03 04:07:55;;;;;;;11.20;3.72;;;;;;;15.41;100.00;99081.16;5074157;28;20044;-75
2023/08/03 04:10:21;;;;;;;16.17;3.90;;;;;;;15.41;100.00;99083.03;5073388;28;20023;-75
2023/08/03 04:12:46;;;;;;;16.40;5.07;;;;;;;15.42;100.00;99088.25;5082513;28;20064;-74
2023/08/03 04:15:11;;;;;;;14.52;3.47;;;;;;;15.41;100.00;99091.16;5084458;28;20032;-75
2023/08/03 04:17:38;;;;;;;12.32;3.80;;;;;;;15.41;100.00;99094.69;5084848;28;20043;-76
2023/08/03 04:20:04;;;;;;;16.00;4.68;;;;;;;15.40;100.00;99092.19;5079571;28;20033;-75
2023/08/03 04:22:30;;;;;;;12.80;4.03;;;;;;;15.40;100.00;99103.00;5080811;28;20024;-75
2023/08/03 04:24:55;;;;;;;10.65;3.70;;;;;;;15.40;100.00;99103.84;5081267;28;20021;-76
2023/08/03 04:27:20;;;;;;;16.40;4.70;;;;;;;15.38;100.00;99101.31;5084531;28;20047;-76
2023/08/03 04:29:46;;;;;;;14.40;4.15;;;;;;;15.39;100.00;99110.28;5077321;28;20029;-76
2023/08/03 04:32:11;;;;;;;13.38;3.67;;;;;;;15.38;100.00;99122.97;5084213;28;20095;-76
2023/08/03 04:34:36;;;;;;;13.30;3.60;;;;;;;15.36;100.00;99125.03;5073360;28;20041;-75
2023/08/03 04:37:02;;;;;;;12.52;3.38;;;;;;;15.35;100.00;99131.47;5081595;28;20040;-75
2023/08/03 04:39:28;;;;;;;13.52;4.00;;;;;;;15.34;100.00;99131.66;5068557;28;20025;-76
2023/08/03 04:41:53;;;;;;;11.35;3.63;;;;;;;15.35;100.00;99138.75;5073159;28;20021;-76
2023/08/03 04:44:18;;;;;;;8.88;3.00;;;;;;;15.34;100.00;99145.19;5079718;28;20039;-76
2023/08/03 04:46:44;;;;;;;10.48;3.10;;;;;;;15.33;100.00;99141.66;5081914;28;20408;-75
2023/08/03 04:49:12;;;;;;;8.43;2.85;;;;;;;15.32;100.00;99150.78;5080880;28;20005;-76
2023/08/03 04:51:37;;;;;;;11.98;3.55;;;;;;;15.33;100.00;99157.91;5079545;28;20032;-75
2023/08/03 04:54:03;;;;;;;11.68;3.08;;;;;;;15.35;100.00;99153.13;5078402;28;20017;-74
2023/08/03 04:56:28;;;;;;;6.90;3.03;;;;;;;15.34;100.00;99158.72;5079370;28;20044;-75
2023/08/03 04:58:53;;;;;;;9.15;3.25;;;;;;;15.35;100.00;99161.25;5079894;28;20036;-75
2023/08/03 05:01:19;;;;;;;9.02;3.30;;;;;;;15.36;100.00;99157.53;5080105;28;20020;-75
2023/08/03 05:03:44;;;;;;;9.77;3.70;;;;;;;15.38;100.00;99166.28;5080218;28;20107;-75
2023/08/03 05:06:09;;;;;;;8.27;3.35;;;;;;;15.39;100.00;99172.56;5075081;28;20522;-74
2023/08/03 05:08:35;;;;;;;11.82;3.20;;;;;;;15.43;100.00;99178.44;5079565;28;20092;-74
2023/08/03 05:11:00;;;;;;;9.10;3.58;;;;;;;15.40;100.00;99179.63;5082912;28;20099;-74
2023/08/03 05:13:25;;;;;;;10.68;3.10;;;;;;;15.41;100.00;99184.03;5070925;28;20047;-75
2023/08/03 05:15:50;;;;;;;7.57;2.72;;;;;;;15.42;100.00;99184.84;5069469;28;20033;-74
2023/08/03 05:18:16;;;;;;;12.00;2.78;;;;;;;15.43;100.00;99194.66;5073582;28;20032;-74
2023/08/03 05:20:41;;;;;;;10.68;2.72;;;;;;;15.44;100.00;99199.06;5074358;28;20047;-75
2023/08/03 05:23:08;;;;;;;12.27;2.72;;;;;;;15.44;100.00;99201.78;5070723;28;20094;-75
2023/08/03 05:25:34;;;;;;;8.65;2.90;;;;;;;15.47;100.00;99206.81;5080439;28;20056;-74
2023/08/03 05:28:00;;;;;;;8.93;2.88;;;;;;;15.45;100.00;99211.59;5075964;28;20016;-74
2023/08/03 05:30:25;;;;;;;9.82;2.90;;;;;;;15.46;100.00;99210.53;5063293;28;20021;-75
2023/08/03 05:32:51;;;;;;;9.40;3.10;;;;;;;15.47;100.00;99212.22;5068185;28;20097;-74
2023/08/03 05:35:16;;;;;;;11.30;2.88;;;;;;;15.48;100.00;99227.47;5069503;28;20036;-75
2023/08/03 05:37:42;;;;;;;18.33;3.67;;;;;;;15.47;100.00;99215.78;5076467;28;20048;-74
2023/08/03 05:40:08;;;;;;;12.95;3.17;;;;;;;15.52;100.00;99226.91;5068796;28;20025;-74
2023/08/03 05:42:40;;;;;;;9.88;2.67;;;;;;;15.52;100.00;99226.91;5075844;28;20092;-74
2023/08/03 05:45:11;;;;;;;11.02;2.88;;;;;;;15.56;100.00;99227.34;5079806;28;20025;-75
2023/08/03 05:47:38;;;;;;;12.77;2.88;;;;;;;15.57;100.00;99244.47;5068058;28;20098;-74
2023/08/03 05:50:13;;;;;;;12.70;3.10;;;;;;;15.58;100.00;99246.13;5067084;28;20039;-74
2023/08/03 05:52:39;;;;;;;9.43;2.58;;;;;;;15.58;100.00;99249.69;5077620;28;20043;-75
2023/08/03 05:55:04;;;;;;;8.93;2.90;;;;;;;15.59;100.00;99253.25;5067946;28;20020;-75
2023/08/03 05:57:30;;;;;;;9.65;2.50;;;;;;;15.58;100.00;99263.25;5061740;28;20029;-75
2023/08/03 05:59:55;;;;;;;13.75;3.13;;;;;;;15.59;100.00;99267.59;5078364;28;20037;-74
2023/08/03 06:02:32;;;;;;;11.77;2.67;;;;;;;15.61;100.00;99273.69;5080735;28;20086;-75
2023/08/03 06:04:58;;;;;;;12.35;2.97;;;;;;;15.59;100.00;99275.72;5078038;28;20024;-74
2023/08/03 06:07:23;;;;;;;10.82;2.95;;;;;;;15.61;100.00;99271.00;5074016;28;20082;-76
2023/08/03 06:09:49;;;;;;;14.32;3.28;;;;;;;15.63;100.00;99287.06;5076114;28;20041;-74
2023/08/03 06:12:15;;;;;;;15.70;3.13;;;;;;;15.63;100.00;99290.59;5074632;28;20021;-75
2023/08/03 06:14:41;;;;;;;12.98;3.10;;;;;;;15.65;100.00;99288.56;5071898;28;20033;-79
2023/08/03 06:17:09;;;;;;;13.25;2.92;;;;;;;15.68;100.00;99290.91;5055756;28;20024;-78
2023/08/03 06:19:35;;;;;;;13.98;2.95;;;;;;;15.69;100.00;99297.16;5061461;28;20029;-78
2023/08/03 06:22:04;;;;;;;9.70;2.50;;;;;;;15.70;100.00;99291.53;5056213;28;20029;-79
2023/08/03 06:24:29;;;;;;;9.13;2.40;;;;;;;15.71;100.00;99300.50;5049508;28;20078;-79
2023/08/03 06:26:57;;;;;;;10.88;2.60;;;;;;;15.69;100.00;99302.56;5054485;28;20033;-79
2023/08/03 06:29:23;;;;;;;13.82;3.00;;;;;;;15.71;100.00;99301.34;5060229;28;20028;-79
2023/08/03 06:31:49;;;;;;;11.25;2.72;;;;;;;15.71;100.00;99298.66;5052439;28;20066;-79
2023/08/03 06:34:15;;;;;;;15.30;3.42;;;;;;;15.74;100.00;99302.88;5048980;28;20036;-79
2023/08/03 06:36:44;;;;;;;10.68;3.33;;;;;;;15.73;100.00;99310.13;5057056;28;20056;-79
2023/08/03 06:39:09;;;;;;;13.73;3.03;;;;;;;15.74;100.00;99316.41;5057542;28;20020;-79
2023/08/03 06:41:35;;;;;;;11.60;3.17;;;;;;;15.71;100.00;99328.44;5060805;28;20158;-79
2023/08/03 06:44:01;;;;;;;13.35;2.83;;;;;;;15.73;100.00;99322.84;5059662;28;20396;-79
2023/08/03 06:46:27;;;;;;;13.80;3.53;;;;;;;15.72;100.00;99330.13;5061706;28;20462;-79
2023/08/03 06:48:53;;;;;;;11.43;3.03;;;;;;;15.73;100.00;99333.69;5049146;28;20032;-79
2023/08/03 06:51:19;;;;;;;11.68;2.80;;;;;;;15.71;100.00;99347.41;5049912;28;20021;-79
2023/08/03 06:53:46;;;;;;;10.77;2.72;;;;;;;15.73;100.00;99348.06;5054977;28;20065;-79
2023/08/03 06:56:12;;;;;;;14.10;2.67;;;;;;;15.72;100.00;99350.94;5061400;28;20166;-79
2023/08/03 06:58:37;;;;;;;11.45;2.65;;;;;;;15.72;100.00;99346.38;5057389;28;20064;-80
2023/08/03 07:01:03;;;;;;;7.13;2.20;;;;;;;15.76;100.00;99365.81;5050305;28;20044;-79
2023/08/03 07:03:29;;;;;;;13.57;2.45;;;;;;;15.78;100.00;99365.63;5052598;28;20400;-80
2023/08/03 07:05:54;;;;;;;10.57;2.50;;;;;;;15.81;100.00;99371.56;5057156;28;20480;-79
2023/08/03 07:08:20;;;;;;;10.38;2.58;;;;;;;15.85;100.00;99374.75;5060221;28;20052;-78
2023/08/03 07:10:45;;;;;;;6.70;2.30;;;;;;;15.88;100.00;99371.66;5054733;28;20067;-74
2023/08/03 07:13:10;;;;;;;8.55;2.28;;;;;;;15.92;100.00;99383.00;5060334;28;20399;-75
2023/08/03 07:15:36;;;;;;;9.57;2.67;;;;;;;15.94;100.00;99384.47;5056706;28;20429;-74
2023/08/03 07:18:03;;;;;;;8.75;2.40;;;;;;;16.00;100.00;99393.72;5052467;28;20052;-75
2023/08/03 07:20:28;;;;;;;13.85;3.22;;;;;;;16.03;100.00;99394.22;5054600;28;21237;-77
2023/08/03 07:22:54;;;;;;;13.27;2.97;;;;;;;16.05;100.00;99399.47;5052538;28;20051;-76
2023/08/03 07:25:19;;;;;;;12.15;2.90;;;;;;;16.09;100.00;99403.47;5062682;28;20028;-72
2023/08/03 07:27:44;;;;;;;11.43;3.30;;;;;;;16.09;100.00;99400.75;5065369;28;20085;-74
2023/08/03 07:30:10;;;;;;;8.60;2.58;;;;;;;16.12;100.00;99413.09;5063212;28;20058;-74
2023/08/03 07:32:35;;;;;;;10.05;2.50;;;;;;;16.15;100.00;99416.31;5059388;28;20029;-71
2023/08/03 07:35:02;;;;;;;7.63;2.13;;;;;;;16.20;100.00;99402.19;5051638;28;20032;-72
2023/08/03 07:37:27;;;;;;;12.95;2.45;;;;;;;16.28;100.00;99406.69;5055442;28;20053;-72
2023/08/03 07:39:52;;;;;;;11.05;2.75;;;;;;;16.31;100.00;99409.88;5058876;28;20033;-72
2023/08/03 07:42:18;;;;;;;14.70;3.05;;;;;;;16.32;100.00;99413.41;5067822;28;20039;-73
2023/08/03 07:44:43;;;;;;;8.88;2.20;;;;;;;16.31;100.00;99411.72;5055423;28;20480;-73
2023/08/03 07:47:09;;;;;;;9.63;2.15;;;;;;;16.32;100.00;99426.97;5062255;28;20167;-72
2023/08/03 07:49:34;;;;;;;9.95;2.75;;;;;;;16.33;100.00;99432.22;5066086;28;20086;-71
2023/08/03 07:51:59;;;;;;;15.68;2.83;;;;;;;16.35;100.00;99429.31;5067905;28;20013;-72
2023/08/03 07:54:25;;;;;;;14.32;3.17;;;;;;;16.34;100.00;99428.47;5068802;28;20045;-77
2023/08/03 07:56:50;;;;;;;10.32;2.42;;;;;;;16.36;100.00;99422.88;5075960;28;20032;-76
2023/08/03 07:59:15;;;;;;;12.20;2.88;;;;;;;16.33;100.00;99434.91;5070298;28;20024;-77
2023/08/03 08:01:43;;;;;;;11.00;2.80;;;;;;;16.30;100.00;99443.44;5079191;28;20090;-77
2023/08/03 08:04:09;;;;;;;13.07;3.03;;;;;;;16.29;100.00;99449.03;5068074;28;20044;-75
2023/08/03 08:06:35;;;;;;;17.65;3.25;;;;;;;16.23;100.00;99456.03;5068881;28;20074;-76
2023/08/03 08:09:00;;;;;;;10.93;2.90;;;;;;;16.22;100.00;99470.59;5065929;28;20024;-76
2023/08/03 08:11:25;;;;;;;15.70;3.20;;;;;;;16.17;100.00;99484.72;5059604;28;20025;-76
2023/08/03 08:13:51;;;;;;;14.07;2.90;;;;;;;16.14;100.00;99476.94;5063413;28;20031;-76
2023/08/03 08:16:17;;;;;;;14.93;3.25;;;;;;;16.08;100.00;99483.09;5060929;28;20548;-78
2023/08/03 08:18:42;;;;;;;14.65;3.25;;;;;;;16.07;100.00;99484.13;5074717;28;20049;-77
2023/08/03 08:21:10;;;;;;;12.68;2.60;;;;;;;16.08;100.00;99477.69;5058507;28;20430;-77
2023/08/03 08:23:36;;;;;;;11.52;3.03;;;;;;;16.10;100.00;99491.06;5062507;28;20036;-76
2023/08/03 08:26:08;;;;;;;10.73;2.63;;;;;;;16.08;100.00;99500.19;5057528;28;20033;-76
2023/08/03 08:28:33;;;;;;;13.93;3.22;;;;;;;16.13;100.00;99515.91;5033537;28;20033;-77
2023/08/03 08:30:58;;;;;;;11.05;2.67;;;;;;;16.13;100.00;99509.66;5049839;28;20540;-77
2023/08/03 08:33:24;;;;;;;11.48;2.63;;;;;;;16.12;100.00;99518.81;5051035;28;20082;-78
2023/08/03 08:35:49;;;;;;;12.45;2.67;;;;;;;16.14;100.00;99527.63;5048793;28;20040;-80
2023/08/03 08:38:16;;;;;;;10.65;2.60;;;;;;;16.16;100.00;99520.97;5060543;28;20503;-80
2023/08/03 08:40:44;;;;;;;14.63;2.65;;;;;;;16.19;100.00;99523.34;5052384;28;20020;-80
2023/08/03 08:43:09;;;;;;;10.50;2.55;;;;;;;16.22;100.00;99536.53;5061782;28;20044;-81
2023/08/03 08:45:36;;;;;;;15.95;3.28;;;;;;;16.20;100.00;99546.69;5064499;28;20021;-81
2023/08/03 08:48:02;;;;;;;10.18;2.70;;;;;;;16.23;100.00;99542.78;5063323;28;20028;-81
2023/08/03 08:50:28;;;;;;;11.55;2.10;;;;;;;16.24;100.00;99542.59;5064126;28;20097;-81
2023/08/03 08:52:55;;;;;;;8.40;2.28;;;;;;;16.27;100.00;99549.53;5060056;28;20033;-81
2023/08/03 08:55:26;;;;;;;9.52;2.25;;;;;;;16.32;100.00;99552.53;5060800;28;20075;-82
2023/08/03 08:57:52;;;;;;;4.13;1.60;;;;;;;16.33;100.00;99558.81;5064666;28;20411;-82
2023/08/03 09:00:19;;;;;;;5.70;1.67;;;;;;;16.33;100.00;99566.94;5057300;28;20372;-81
2023/08/03 09:02:45;;;;;;;15.55;2.30;;;;;;;16.30;100.00;99568.16;5053845;28;20028;-81
2023/08/03 09:05:15;;;;;;;3.50;1.27;;;;;;;16.27;100.00;99570.34;5050223;28;20483;-81
2023/08/03 09:07:41;;;;;;;4.75;1.75;;;;;;;16.23;100.00;99580.72;5051899;28;20021;-81
2023/08/03 09:10:08;;;;;;;7.05;1.48;;;;;;;16.21;100.00;99577.38;5058276;28;20029;-81
2023/08/03 09:12:33;;;;;;;8.10;1.73;;;;;;;16.20;100.00;99587.34;5055174;28;20044;-80
2023/08/03 09:14:59;;;;;;;10.13;2.33;;;;;;;16.18;100.00;99597.53;5059967;28;20487;-82
2023/08/03 09:17:26;;;;;;;6.32;2.35;;;;;;;16.22;100.00;99608.84;5060899;28;20427;-81
2023/08/03 09:19:52;;;;;;;7.03;1.80;;;;;;;16.27;100.00;99602.88;5059596;28;20079;-81
2023/08/03 09:22:19;;;;;;;7.72;2.40;;;;;;;16.29;100.00;99607.13;5062068;28;20029;-78
2023/08/03 09:24:47;;;;;;;5.78;1.70;;;;;;;16.32;100.00;99611.34;5045383;28;20032;-78
2023/08/03 09:27:16;;;;;;;6.15;1.83;;;;;;;16.29;100.00;99623.38;5045959;28;20025;-74
2023/08/03 09:29:42;;;;;;;;;;;;;;;16.35;100.00;99627.25;5063602;28;20036;-74
2023/08/03 09:32:07;;;;;;;10.85;2.35;;;;;;;16.32;100.00;99633.03;5057235;28;19916;-74
2023/08/03 09:34:40;;;;;;;5.10;1.92;;;;;;;16.33;100.00;99637.44;5052188;28;20033;-74
2023/08/03 09:37:07;;;;;;;9.30;2.22;;;;;;;16.34;100.00;99650.81;5062761;28;20047;-73
2023/08/03 09:39:34;;;;;;;12.55;2.88;;;;;;;16.37;100.00;99647.75;5058063;28;20058;-73
2023/08/03 09:42:04;;;;;;;13.98;3.22;;;;;;;16.37;100.00;99661.31;5057327;28;20043;-73
2023/08/03 09:44:34;;;;;;;12.68;2.80;;;;;;;16.41;100.00;99665.34;5056018;28;20029;-71
2023/08/03 09:47:01;;;;;;;13.07;2.95;;;;;;;16.48;100.00;99660.03;5063768;28;20021;-75
2023/08/03 09:49:27;;;;;;;9.90;2.67;;;;;;;16.52;100.00;99671.38;5053069;28;20161;-76
2023/08/03 09:51:57;;;;;;;15.20;3.33;;;;;;;16.58;100.00;99686.94;5064118;28;20056;-77
2023/08/03 09:54:45;;;;;;;10.48;2.83;;;;;;;16.59;100.00;99681.31;5060653;28;20040;-80
2023/08/03 09:57:13;;;;;;;16.05;3.50;;;;;;;16.63;100.00;99692.63;5066437;28;20037;-77
2023/08/03 09:59:43;;;;;;;11.55;3.13;;;;;;;16.66;100.00;99694.16;5088494;28;20093;-78
2023/08/03 10:02:11;;;;;;;;;;;;;;;16.71;100.00;99698.00;5059856;28;20107;-75
2023/08/03 10:04:47;;;;;;;11.82;3.53;;;;;;;16.76;100.00;99702.91;5136102;23;19940;-78
2023/08/03 10:07:16;;;;;;;12.82;3.22;;;;;;;16.81;100.00;99708.63;5063477;28;20037;-78
2023/08/03 10:09:45;;;;;;;11.85;2.83;;;;;;;16.83;100.00;99711.16;5064459;28;20044;-78
2023/08/03 10:12:16;;;;;;;;;;;;;;;16.90;100.00;99717.59;5064877;28;20008;-79
2023/08/03 10:14:43;;;;;;;12.45;3.85;;;;;;;16.95;100.00;99715.16;5056636;28;19913;-77
2023/08/03 10:17:11;;;;;;;10.80;2.85;;;;;;;17.06;100.00;99716.63;5059488;28;20508;-78
2023/08/03 10:19:40;;;;;;;16.00;3.55;;;;;;;17.20;100.00;99725.81;5068436;28;20043;-78
2023/08/03 10:22:09;;;;;;;14.15;3.40;;;;;;;17.32;100.00;99721.66;5068624;28;20140;-78
2023/08/03 10:24:34;;;;;;;10.25;2.72;;;;;;;17.40;100.00;99718.00;5070117;28;20053;-77
2023/08/03 10:27:18;;;;;;;10.75;3.20;;;;;;;17.52;100.00;99726.53;5070217;28;20377;-77
2023/08/03 10:29:49;;;;;;;10.00;2.80;;;;;;;17.58;100.00;99732.06;5062861;28;20223;-77
2023/08/03 10:32:19;;;;;;;10.27;2.67;;;;;;;17.70;100.00;99735.19;5066266;28;20139;-78
2023/08/03 10:34:44;;;;;;;13.00;3.22;;;;;;;17.78;100.00;99735.06;5067114;28;20039;-78
2023/08/03 10:37:13;;;;;;;10.60;3.00;;;;;;;17.82;100.00;99738.28;5065838;28;20033;-79
2023/08/03 10:39:48;;;;;;;7.38;2.53;;;;;;;17.87;100.00;99754.03;5056194;28;20031;-78
2023/08/03 10:42:35;;;;;;;13.65;3.30;;;;;;;17.89;100.00;99743.78;5063088;28;20040;-78
2023/08/03 10:45:33;;;;;;;10.20;3.60;;;;;;;17.93;100.00;99747.88;5060270;28;20036;-77
2023/08/03 10:48:36;;;;;;;10.30;3.00;;;;;;;18.00;100.00;99748.78;5031361;28;20139;-78
2023/08/03 10:51:03;;;;;;;12.50;3.28;;;;;;;18.10;100.00;99754.78;5062446;28;20645;-78
2023/08/03 10:53:29;;;;;;;12.05;3.38;;;;;;;18.11;100.00;99753.78;5060646;28;20043;-78
2023/08/03 10:56:10;;;;;;;13.77;3.30;;;;;;;18.12;100.00;99755.44;5045531;28;20029;-80
2023/08/03 10:58:50;;;;;;;13.10;3.00;;;;;;;18.15;100.00;99765.09;5044605;28;20170;-80
2023/08/03 11:01:23;;;;;;;14.57;3.60;;;;;;;18.17;100.00;99769.31;5043397;28;20037;-81
2023/08/03 11:03:49;;;;;;;8.50;2.92;;;;;;;18.15;100.00;99779.53;5040625;28;20037;-79
2023/08/03 11:06:16;;;;;;;13.82;3.17;;;;;;;18.13;100.00;99784.31;5042494;28;20060;-80
2023/08/03 11:08:46;;;;;;;13.38;3.28;;;;;;;18.10;100.00;99779.25;5044209;28;20120;-81
2023/08/03 11:11:21;;;;;;;13.55;3.38;;;;;;;18.14;100.00;99798.75;5042499;28;20104;-80
2023/08/03 11:13:47;;;;;;;15.30;3.83;;;;;;;18.12;100.00;99789.94;5043866;28;20028;-80
2023/08/03 11:16:18;;;;;;;14.00;3.88;;;;;;;18.07;100.00;99795.09;5054021;28;20029;-79